Tufão PHANFONE 2002: trajetória, intensidade e histórico
25/08/2002, 00:00:00
10/08/2002, 06:00:00 – 25/08/2002, 00:00:00
Trajetória histórica
Acompanhe a evolução e o deslocamento de Tufão PHANFONE em 2002, com a trajetória completa registrada, ventos máximos sustentados de 135 nós, pressão central mínima e cronologia detalhada.
| Data | Hora | Tipo | Ventokm/h | PressãohPa |
|---|---|---|---|---|
| 25/08 | 00:00 | EXCiclone extratropical | -- | 998 |
| 24/08 | 21:00 | EXCiclone extratropical | -- | 998 |
| 24/08 | 18:00 | EXCiclone extratropical | -- | 998 |
| 24/08 | 15:00 | EXCiclone extratropical | -- | 998 |
| 24/08 | 12:00 | EXCiclone extratropical | -- | 998 |
| 24/08 | 09:00 | EXCiclone extratropical | -- | 998 |
| 24/08 | 06:00 | EXCiclone extratropical | -- | 998 |
| 24/08 | 03:00 | EXCiclone extratropical | -- | 999 |
| 24/08 | 00:00 | EXCiclone extratropical | -- | 1000 |
| 23/08 | 21:00 | EXCiclone extratropical | -- | 1000 |
| 23/08 | 18:00 | EXCiclone extratropical | -- | 1000 |
| 23/08 | 15:00 | EXCiclone extratropical | -- | 999 |
| 23/08 | 12:00 | EXCiclone extratropical | -- | 998 |
| 23/08 | 09:00 | EXCiclone extratropical | -- | 997 |
| 23/08 | 06:00 | EXCiclone extratropical | -- | 996 |
| 23/08 | 03:00 | EXCiclone extratropical | -- | 995 |
| 23/08 | 00:00 | EXCiclone extratropical | -- | 994 |
| 22/08 | 21:00 | EXCiclone extratropical | -- | 992 |
| 22/08 | 18:00 | EXCiclone extratropical | -- | 990 |
| 22/08 | 15:00 | EXCiclone extratropical | -- | 988 |
| 22/08 | 12:00 | EXCiclone extratropical | -- | 986 |
| 22/08 | 09:00 | EXCiclone extratropical | -- | 985 |
| 22/08 | 06:00 | EXCiclone extratropical | -- | 984 |
| 22/08 | 03:00 | EXCiclone extratropical | -- | 983 |
| 22/08 | 00:00 | EXCiclone extratropical | -- | 982 |
| 21/08 | 21:00 | EXCiclone extratropical | -- | 981 |
| 21/08 | 18:00 | EXCiclone extratropical | -- | 980 |
| 21/08 | 15:00 | EXCiclone extratropical | -- | 978 |
| 21/08 | 12:00 | EXCiclone extratropical | -- | 976 |
| 21/08 | 09:00 | EXCiclone extratropical | -- | 974 |
| 21/08 | 06:00 | EXCiclone extratropical | -- | 972 |
| 21/08 | 03:00 | EXCiclone extratropical | -- | 971 |
| 21/08 | 00:00 | EXCiclone extratropical | 100 | 970 |
| 20/08 | 21:00 | STSTempestade tropical severa | 100 | 970 |
| 20/08 | 18:00 | STSTempestade tropical severa | 110 | 970 |
| 20/08 | 15:00 | TSTempestade tropical | 110 | 973 |
| 20/08 | 12:00 | STSTempestade tropical severa | 65 | 997 |
| 20/08 | 09:00 | TSTempestade tropical | 80 | 992 |
| 20/08 | 06:00 | STSTempestade tropical severa | 95 | 987 |
| 20/08 | 03:00 | TSTempestade tropical | 95 | 987 |
| 20/08 | 00:00 | STSTempestade tropical severa | 95 | 987 |
| 19/08 | 21:00 | STSTempestade tropical severa | 100 | 986 |
| 19/08 | 18:00 | STSTempestade tropical severa | 100 | 984 |
| 19/08 | 15:00 | TTufão | 110 | 980 |
| 19/08 | 12:00 | TTufão | 120 | 976 |
| 19/08 | 09:00 | TTufão | 130 | 972 |
| 19/08 | 07:00 | TTufão | 135 | 969 |
| 19/08 | 06:00 | TTufão | 140 | 967 |
| 19/08 | 03:00 | TTufão | 150 | 963 |
| 19/08 | 00:00 | TTufão | 155 | 958 |
| 18/08 | 21:00 | TTufão | 165 | 956 |
| 18/08 | 18:00 | TTufão | 165 | 954 |
| 18/08 | 15:00 | TTufão | 165 | 954 |
| 18/08 | 12:00 | TTufão | 165 | 954 |
| 18/08 | 09:00 | TTufão | 175 | 949 |
| 18/08 | 06:00 | STSupertufão | 185 | 944 |
| 18/08 | 03:00 | STSupertufão | 190 | 941 |
| 18/08 | 00:00 | STSupertufão | 195 | 938 |
| 17/08 | 21:00 | STSupertufão | 200 | 936 |
| 17/08 | 18:00 | STSupertufão | 205 | 933 |
| 17/08 | 15:00 | STSupertufão | 210 | 930 |
| 17/08 | 12:00 | STSupertufão | 215 | 927 |
| 17/08 | 09:00 | STSupertufão | 215 | 927 |
| 17/08 | 06:00 | STSupertufão | 215 | 927 |
| 17/08 | 03:00 | STSupertufão | 215 | 925 |
| 17/08 | 00:00 | STSupertufão | 215 | 922 |
| 16/08 | 21:00 | STSupertufão | 220 | 922 |
| 16/08 | 18:00 | STSupertufão | 220 | 922 |
| 16/08 | 15:00 | STSupertufão | 230 | 916 |
| 16/08 | 12:00 | STSupertufão | 240 | 910 |
| 16/08 | 09:00 | STSupertufão | 240 | 910 |
| 16/08 | 06:00 | STSupertufão | 240 | 910 |
| 16/08 | 03:00 | STSupertufão | 240 | 910 |
| 16/08 | 00:00 | STSupertufão | 240 | 910 |
| 15/08 | 21:00 | STSupertufão | 245 | 907 |
| 15/08 | 18:00 | STSupertufão | 250 | 904 |
| 15/08 | 15:00 | STSupertufão | 245 | 907 |
| 15/08 | 12:00 | STSupertufão | 240 | 910 |
| 15/08 | 09:00 | STSupertufão | 230 | 919 |
| 15/08 | 06:00 | STSupertufão | 215 | 927 |
| 15/08 | 03:00 | STSupertufão | 200 | 936 |
| 15/08 | 00:00 | STSupertufão | 185 | 944 |
| 14/08 | 21:00 | TTufão | 175 | 949 |
| 14/08 | 18:00 | TTufão | 165 | 954 |
| 14/08 | 15:00 | TTufão | 165 | 956 |
| 14/08 | 12:00 | TTufão | 155 | 958 |
| 14/08 | 09:00 | TTufão | 155 | 961 |
| 14/08 | 06:00 | TTufão | 150 | 963 |
| 14/08 | 03:00 | TTufão | 145 | 965 |
| 14/08 | 00:00 | TTufão | 140 | 967 |
| 13/08 | 21:00 | TTufão | 140 | 967 |
| 13/08 | 18:00 | STSTempestade tropical severa | 140 | 967 |
| 13/08 | 15:00 | TTufão | 135 | 970 |
| 13/08 | 12:00 | STSTempestade tropical severa | 130 | 972 |
| 13/08 | 09:00 | TTufão | 125 | 974 |
| 13/08 | 06:00 | STSTempestade tropical severa | 120 | 976 |
| 13/08 | 03:00 | TSTempestade tropical | 115 | 978 |
| 13/08 | 00:00 | STSTempestade tropical severa | 110 | 980 |
| 12/08 | 21:00 | TSTempestade tropical | 105 | 982 |
| 12/08 | 18:00 | STSTempestade tropical severa | 100 | 984 |
| 12/08 | 15:00 | TSTempestade tropical | 100 | 984 |
| 12/08 | 12:00 | TSTempestade tropical | 100 | 984 |
| 12/08 | 09:00 | TSTempestade tropical | 95 | 988 |
| 12/08 | 06:00 | TSTempestade tropical | 85 | 991 |
| 12/08 | 03:00 | TSTempestade tropical | 80 | 993 |
| 12/08 | 00:00 | TSTempestade tropical | 75 | 994 |
| 11/08 | 21:00 | TSTempestade tropical | 75 | 994 |
| 11/08 | 18:00 | TDDepressão tropical | 75 | 994 |
| 11/08 | 15:00 | TDDepressão tropical | 65 | 997 |
| 11/08 | 12:00 | TDDepressão tropical | 55 | 1000 |
| 11/08 | 09:00 | TDDepressão tropical | 50 | 1001 |
| 11/08 | 06:00 | TDDepressão tropical | 45 | 1002 |
| 11/08 | 03:00 | TDDepressão tropical | 45 | 1002 |
| 11/08 | 00:00 | TDDepressão tropical | 45 | 1002 |
| 10/08 | 21:00 | TDDepressão tropical | 45 | 1003 |
| 10/08 | 18:00 | TDDepressão tropical | 35 | 1004 |
| 10/08 | 15:00 | TDDepressão tropical | 35 | 1004 |
| 10/08 | 12:00 | TDDepressão tropical | 35 | 1004 |
| 10/08 | 09:00 | TDDepressão tropical | 35 | 1004 |
| 10/08 | 06:00 | TDDepressão tropical | 35 | 1004 |
Cronologia de localização
120 Registos de localizaçãoDetalhes do evento
Ligações das fontes
A localização, a extensão e o estado de cada evento podem ser atualizados em momentos diferentes consoante a fonte. Confirme decisões importantes junto das autoridades oficiais de emergência.
Os registos de eventos provêm da NASA EONET e são complementados por registos de deslizamentos de terra do USGS FDSN. As análises e previsões de tempestades podem utilizar a NOAA NHC ou o JTWC, com registos históricos ATCF da UCAR/NCAR quando disponíveis. As imagens de satélite provêm da NASA Worldview/GIBS (GOES e Himawari) ou da EUMETSAT Meteosat, consoante a cobertura do mapa.
Fontes: NASA EONET · USGS · NOAA NHC · JTWC · UCAR/NCAR ATCF · NASA Worldview/GIBS · EUMETSAT Meteosat · OpenStreetMap contributors